Time;durP1;ratioP1;P1;durP2;ratioP2;P2;SDS_P1;SDS_P2;PMS_P1;PMS_P2;Temp;Humidity;BMP_temperature;BMP_pressure;BME280_temperature;BME280_humidity;BME280_pressure;Samples;Min_cycle;Max_cycle;Signal;HPM_P1;HPM_P2
2022/01/13 00:00:05;;;;;;;;;;;0.30;99.90;0.90;101564.00;;;;340307;28;83364;-87
2022/01/13 00:00:17;;;;;;;;;;;0.30;99.90;0.90;101559.00;;;;338913;28;87406;-87
2022/01/13 00:00:29;;;;;;;;;;;0.30;99.90;1.00;101550.00;;;;340151;28;83554;-86
2022/01/13 00:00:41;;;;;;;;;;;0.30;99.90;1.00;101558.00;;;;340094;28;87365;-87
2022/01/13 00:00:52;;;;;;;;;;;0.30;99.90;1.00;101559.00;;;;341658;28;83312;-87
2022/01/13 00:01:04;;;;;;;;;;;0.30;99.90;1.00;101561.00;;;;341402;28;85969;-86
2022/01/13 00:01:20;;;;;;;;;;;0.30;99.90;1.00;101555.00;;;;341398;28;83449;-87
2022/01/13 00:01:39;;;;;;;;;;;0.30;99.90;1.10;101562.00;;;;341502;28;85407;-87
2022/01/13 00:01:56;;;;;;;;;;;0.30;99.90;1.00;101562.00;;;;341492;28;83673;-87
2022/01/13 00:02:10;;;;;;;;;;;0.30;99.90;0.90;101570.00;;;;341722;28;85258;-87
2022/01/13 00:02:24;;;;;;;;;;;0.30;99.90;0.90;101567.00;;;;342658;28;82761;-87
2022/01/13 00:02:37;;;;;;;;;;;0.30;99.90;0.90;101567.00;;;;341448;28;87293;-87
2022/01/13 00:02:49;;;;;;;;;;;0.30;99.90;1.00;101567.00;;;;340185;28;82545;-86
2022/01/13 00:03:01;;;;;;;;;;;0.30;99.90;0.90;101562.00;;;;340264;28;87245;-87
2022/01/13 00:03:13;;;;;;;;;;;0.30;99.90;0.90;101565.00;;;;340231;28;83422;-87
2022/01/13 00:03:25;;;;;;;;;;;0.30;99.90;0.80;101563.00;;;;341479;28;86913;-87
2022/01/13 00:03:37;;;;;;;;;;;0.20;99.90;0.90;101572.00;;;;339020;28;83408;-86
2022/01/13 00:03:49;;;;;;;;;;;0.20;99.90;0.90;101567.00;;;;340201;28;86978;-87
2022/01/13 00:04:01;;;;;;;;;;;0.20;99.90;1.10;101570.00;;;;341621;28;83560;-87
2022/01/13 00:04:15;;;;;;;;;;;0.20;99.90;1.00;101566.00;;;;338881;28;87319;-86
2022/01/13 00:04:26;;;;;;;;;;;0.30;99.90;0.80;101574.00;;;;342922;28;83462;-87
2022/01/13 00:04:38;;;;;;;;;;;0.20;99.90;0.70;101568.00;;;;341594;28;87199;-87
2022/01/13 00:04:50;;;;;;;;;;;0.20;99.90;0.70;101575.00;;;;340170;28;83458;-87
2022/01/13 00:05:03;;;;;;;;;;;0.20;99.90;0.70;101568.00;;;;342647;28;85381;-88
2022/01/13 00:05:17;;;;;;;;;;;0.10;99.90;0.80;101566.00;;;;340209;28;83497;-87
2022/01/13 00:05:30;;;;;;;;;;;0.10;99.90;0.80;101567.00;;;;341446;28;85067;-88
2022/01/13 00:05:42;;;;;;;;;;;0.20;99.90;0.90;101566.00;;;;341661;28;83576;-87
2022/01/13 00:05:54;;;;;;;;;;;0.20;99.90;0.90;101570.00;;;;340888;28;87661;-88
2022/01/13 00:06:05;;;;;;;;;;;0.20;99.90;0.90;101570.00;;;;342870;28;83328;-89
2022/01/13 00:06:17;;;;;;;;;;;0.20;99.90;0.90;101578.00;;;;342950;28;87258;-87
2022/01/13 00:06:29;;;;;;;;;;;0.20;99.90;0.80;101571.00;;;;340133;28;83702;-87
2022/01/13 00:06:41;;;;;;;;;;;0.20;99.90;0.80;101561.00;;;;340171;28;87624;-88
2022/01/13 00:06:53;;;;;;;;;;;0.10;99.90;0.80;101567.00;;;;341698;28;82427;-87
2022/01/13 00:07:05;;;;;;;;;;;0.10;99.90;0.80;101576.00;;;;342972;28;86227;-87
2022/01/13 00:07:17;;;;;;;;;;;0.10;99.90;0.80;101577.00;;;;339809;28;83527;-87
2022/01/13 00:07:29;;;;;;;;;;;0.10;99.90;0.90;101571.00;;;;340260;28;86374;-87
2022/01/13 00:07:40;;;;;;;;;;;0.10;99.90;1.00;101581.00;;;;341640;28;83163;-87
2022/01/13 00:07:55;;;;;;;;;;;0.10;99.90;1.00;101573.00;;;;338892;28;86099;-87
2022/01/13 00:08:07;;;;;;;;;;;0.10;99.90;0.90;101576.00;;;;340218;28;83473;-87
2022/01/13 00:08:18;;;;;;;;;;;0.20;99.90;0.90;101579.00;;;;341205;28;88296;-87
2022/01/13 00:08:30;;;;;;;;;;;0.10;99.90;0.90;101575.00;;;;339645;28;83536;-87
2022/01/13 00:08:42;;;;;;;;;;;0.10;99.90;0.80;101589.00;;;;338919;28;85085;-87
2022/01/13 00:08:54;;;;;;;;;;;0.20;99.90;0.90;101575.00;;;;340315;28;83358;-87
2022/01/13 00:09:06;;;;;;;;;;;0.10;99.90;0.80;101580.00;;;;340305;28;87542;-87
2022/01/13 00:09:18;;;;;;;;;;;0.20;99.90;0.70;101579.00;;;;340287;28;83283;-87
2022/01/13 00:09:29;;;;;;;;;;;0.10;99.90;0.80;101578.00;;;;341407;28;87370;-87
2022/01/13 00:09:43;;;;;;;;;;;0.10;99.90;0.90;101575.00;;;;340303;28;83504;-87
2022/01/13 00:09:55;;;;;;;;;;;0.10;99.90;0.80;101575.00;;;;339954;28;85165;-87
2022/01/13 00:10:07;;;;;;;;;;;0.10;99.90;0.80;101574.00;;;;340304;28;83470;-87
2022/01/13 00:10:19;;;;;;;;;;;0.10;99.90;0.80;101575.00;;;;338877;28;86700;-87
2022/01/13 00:10:31;;;;;;;;;;;0.10;99.90;0.90;101573.00;;;;339068;28;82429;-87
2022/01/13 00:10:43;;;;;;;;;;;0.10;99.90;0.90;101576.00;;;;338799;28;87454;-87
2022/01/13 00:10:54;;;;;;;;;;;0.10;99.90;0.90;101570.00;;;;340303;28;83364;-87
2022/01/13 00:11:06;;;;;;;;;;;0.10;99.90;1.00;101566.00;;;;341600;28;83714;-87
2022/01/13 00:11:18;;;;;;;;;;;0.20;99.90;1.10;101572.00;;;;338720;28;83400;-87
2022/01/13 00:11:29;;;;;;;;;;;0.20;99.90;1.00;101564.00;;;;340034;28;90132;-87
2022/01/13 00:11:41;;;;;;;;;;;0.20;99.90;0.90;101569.00;;;;341447;28;83597;-87
2022/01/13 00:11:53;;;;;;;;;;;0.10;99.90;0.90;101568.00;;;;340033;28;86924;-87
2022/01/13 00:12:08;;;;;;;;;;;0.20;99.90;0.90;101569.00;;;;340350;28;83294;-87
2022/01/13 00:12:22;;;;;;;;;;;0.20;99.90;0.90;101560.00;;;;340111;28;86155;-87
2022/01/13 00:12:39;;;;;;;;;;;0.10;99.90;0.90;101567.00;;;;340275;28;83291;-88
2022/01/13 00:13:01;;;;;;;;;;;0.20;99.90;0.90;101569.00;;;;341389;28;88399;-88
2022/01/13 00:13:21;;;;;;;;;;;0.10;99.90;0.90;101564.00;;;;341694;28;83337;-87
2022/01/13 00:13:46;;;;;;;;;;;0.20;99.90;1.00;101563.00;;;;342920;28;86200;-87
2022/01/13 00:15:40;;;;;;;;;;;0.20;99.90;0.80;101563.00;;;;339987;28;87317;-87
2022/01/13 00:15:50;;;;;;;;;;;0.20;99.90;0.90;101567.00;;;;342881;28;83410;-87
2022/01/13 00:16:39;;;;;;;;;;;0.20;99.90;0.90;101567.00;;;;340814;28;82455;-87
2022/01/13 00:16:44;;;;;;;;;;;0.20;99.90;0.70;101568.00;;;;340382;28;83471;-87
2022/01/13 00:17:10;;;;;;;;;;;0.10;99.90;0.70;101576.00;;;;341573;28;86814;-87
2022/01/13 00:17:32;;;;;;;;;;;0.20;99.90;0.80;101569.00;;;;341184;28;82742;-87
2022/01/13 00:17:59;;;;;;;;;;;0.20;99.90;1.00;101564.00;;;;342488;28;83312;-87
2022/01/13 00:18:14;;;;;;;;;;;0.20;99.90;1.00;101571.00;;;;338844;28;85895;-87
2022/01/13 00:19:20;;;;;;;;;;;0.20;99.90;0.90;101569.00;;;;339881;28;83504;-88
2022/01/13 00:20:19;;;;;;;;;;;0.20;99.90;1.00;101563.00;;;;338935;28;82468;-87
2022/01/13 00:21:43;;;;;;;;;;;0.30;99.90;1.00;101569.00;;;;340041;28;86257;-87
2022/01/13 00:22:02;;;;;;;;;;;0.30;99.90;0.90;101567.00;;;;339940;28;83481;-87
2022/01/13 00:23:37;;;;;;;;;;;0.30;99.90;0.90;101568.00;;;;342276;28;87202;-87
2022/01/13 00:23:41;;;;;;;;;;;0.30;99.90;0.90;101561.00;;;;341332;28;83542;-87
2022/01/13 00:23:55;;;;;;;;;;;0.20;99.90;1.00;101569.00;;;;337367;28;87974;-87
2022/01/13 00:24:12;;;;;;;;;;;0.30;99.90;1.00;101558.00;;;;340297;28;83334;-87
2022/01/13 00:24:23;;;;;;;;;;;0.30;99.90;1.10;101566.00;;;;339769;28;85117;-87
2022/01/13 00:24:35;;;;;;;;;;;0.30;99.90;1.10;101562.00;;;;340048;28;84437;-87
2022/01/13 00:24:52;;;;;;;;;;;0.30;99.90;1.10;101563.00;;;;341396;28;86288;-87
2022/01/13 00:25:06;;;;;;;;;;;0.30;99.90;1.00;101557.00;;;;341535;28;83434;-86
2022/01/13 00:25:20;;;;;;;;;;;0.30;99.90;0.90;101568.00;;;;341452;28;86755;-87
2022/01/13 00:25:34;;;;;;;;;;;0.30;99.90;1.10;101561.00;;;;341576;28;82380;-87
2022/01/13 00:25:48;;;;;;;;;;;0.30;99.90;1.10;101567.00;;;;344106;28;87649;-87
2022/01/13 00:26:02;;;;;;;;;;;0.30;99.90;1.10;101563.00;;;;341532;28;83371;-87
2022/01/13 00:26:23;;;;;;;;;;;0.30;99.90;1.00;101565.00;;;;342868;28;87131;-87
2022/01/13 00:26:36;;;;;;;;;;;0.30;99.90;1.10;101567.00;;;;341461;28;83238;-87
2022/01/13 00:26:48;;;;;;;;;;;0.30;99.90;1.10;101568.00;;;;341283;28;87795;-87
2022/01/13 00:27:08;;;;;;;;;;;0.30;99.90;1.10;101559.00;;;;342964;28;83415;-87
2022/01/13 00:27:23;;;;;;;;;;;0.30;99.90;1.10;101569.00;;;;338656;28;86137;-87
2022/01/13 00:27:37;;;;;;;;;;;0.30;99.90;1.00;101555.00;;;;337620;28;83595;-87
2022/01/13 00:27:55;;;;;;;;;;;0.30;99.90;1.00;101571.00;;;;341530;28;86215;-87
2022/01/13 00:28:16;;;;;;;;;;;0.30;99.90;1.00;101564.00;;;;340265;28;83352;-87
2022/01/13 00:28:28;;;;;;;;;;;0.30;99.90;1.00;101566.00;;;;339959;28;87520;-88
2022/01/13 00:28:39;;;;;;;;;;;0.30;99.90;1.00;101572.00;;;;341679;28;83522;-87
2022/01/13 00:28:52;;;;;;;;;;;0.30;99.90;1.00;101567.00;;;;338858;28;86111;-87
2022/01/13 00:29:04;;;;;;;;;;;0.30;99.90;0.90;101561.00;;;;341591;28;83284;-87
2022/01/13 00:29:21;;;;;;;;;;;0.30;99.90;0.90;101562.00;;;;341531;28;83838;-87
2022/01/13 00:29:33;;;;;;;;;;;0.30;99.90;1.00;101571.00;;;;340093;28;83388;-87
2022/01/13 00:29:46;;;;;;;;;;;0.30;99.90;1.00;101572.00;;;;341400;28;87936;-87
2022/01/13 00:30:01;;;;;;;;;;;0.30;99.90;1.00;101574.00;;;;340209;28;83440;-87
2022/01/13 00:30:16;;;;;;;;;;;0.30;99.90;0.90;101569.00;;;;341573;28;87042;-87
2022/01/13 00:30:28;;;;;;;;;;;0.30;99.90;1.00;101563.00;;;;341495;28;83505;-87
2022/01/13 00:30:40;;;;;;;;;;;0.30;99.90;1.10;101573.00;;;;341291;28;85178;-87
2022/01/13 00:30:55;;;;;;;;;;;0.30;99.90;1.10;101563.00;;;;342901;28;83379;-87
2022/01/13 00:31:07;;;;;;;;;;;0.30;99.90;1.00;101573.00;;;;340229;28;84285;-87
2022/01/13 00:31:29;;;;;;;;;;;0.30;99.90;1.00;101572.00;;;;340162;28;83479;-87
2022/01/13 00:31:42;;;;;;;;;;;0.30;99.90;1.00;101575.00;;;;339752;28;87871;-87
2022/01/13 00:31:54;;;;;;;;;;;0.30;99.90;1.00;101568.00;;;;340169;28;83508;-87
2022/01/13 00:32:07;;;;;;;;;;;0.30;99.90;1.00;101572.00;;;;341526;28;86611;-87
2022/01/13 00:32:20;;;;;;;;;;;0.30;99.90;1.00;101566.00;;;;341710;27;82645;-87
2022/01/13 00:32:33;;;;;;;;;;;0.30;99.90;1.00;101564.00;;;;348036;27;87160;-87
2022/01/13 00:32:45;;;;;;;;;;;0.30;99.90;1.00;101563.00;;;;349799;27;83412;-87
2022/01/13 00:32:57;;;;;;;;;;;0.30;99.90;1.00;101562.00;;;;349686;27;84966;-88
2022/01/13 00:33:11;;;;;;;;;;;0.30;99.90;1.00;101563.00;;;;349991;27;82532;-87
2022/01/13 00:33:26;;;;;;;;;;;0.30;99.90;1.00;101563.00;;;;350721;27;83773;-87
2022/01/13 00:33:44;;;;;;;;;;;0.30;99.90;1.00;101568.00;;;;347182;28;82423;-87
2022/01/13 00:33:57;;;;;;;;;;;0.30;99.90;1.00;101564.00;;;;346954;28;86767;-87
2022/01/13 00:34:08;;;;;;;;;;;0.30;99.90;1.10;101556.00;;;;348280;27;83444;-87
2022/01/13 00:34:20;;;;;;;;;;;0.30;99.90;1.10;101552.00;;;;345562;28;87316;-88
2022/01/13 00:34:32;;;;;;;;;;;0.30;99.90;1.10;101561.00;;;;347194;28;82582;-87
2022/01/13 00:34:44;;;;;;;;;;;0.30;99.90;1.20;101562.00;;;;346941;28;86968;-87
2022/01/13 00:34:56;;;;;;;;;;;0.30;99.90;1.10;101560.00;;;;347119;28;83349;-87
2022/01/13 00:35:08;;;;;;;;;;;0.30;99.90;1.10;101562.00;;;;348320;27;87362;-87
2022/01/13 00:35:19;;;;;;;;;;;0.30;99.90;1.10;101564.00;;;;349544;27;83931;-87
2022/01/13 00:35:31;;;;;;;;;;;0.30;99.90;1.10;101562.00;;;;349991;27;86177;-86
2022/01/13 00:35:43;;;;;;;;;;;0.30;99.90;1.10;101560.00;;;;349903;27;83188;-87
2022/01/13 00:35:57;;;;;;;;;;;0.40;99.90;1.20;101557.00;;;;346954;28;87339;-87
2022/01/13 00:36:09;;;;;;;;;;;0.40;99.90;1.20;101554.00;;;;347129;28;83349;-88
2022/01/13 00:36:24;;;;;;;;;;;0.40;99.90;1.30;101562.00;;;;348112;27;87110;-87
2022/01/13 00:36:38;;;;;;;;;;;0.40;99.90;1.20;101561.00;;;;347025;28;83319;-87
2022/01/13 00:36:50;;;;;;;;;;;0.40;99.90;1.30;101560.00;;;;349866;27;83525;-87
2022/01/13 00:37:02;;;;;;;;;;;0.40;99.90;1.30;101553.00;;;;351323;27;83241;-87
2022/01/13 00:37:14;;;;;;;;;;;0.40;99.90;1.20;101551.00;;;;348324;27;87869;-87
2022/01/13 00:37:26;;;;;;;;;;;0.40;99.90;1.10;101557.00;;;;344389;28;82417;-87
2022/01/13 00:37:37;;;;;;;;;;;0.40;99.90;1.10;101555.00;;;;348386;27;85959;-87
2022/01/13 00:37:49;;;;;;;;;;;0.40;99.90;1.10;101557.00;;;;348478;27;83284;-87
2022/01/13 00:38:01;;;;;;;;;;;0.40;99.90;1.10;101556.00;;;;348308;27;86617;-85
2022/01/13 00:38:13;;;;;;;;;;;0.40;99.90;1.20;101557.00;;;;347185;28;82554;-87
2022/01/13 00:38:28;;;;;;;;;;;0.40;99.90;1.20;101558.00;;;;348699;27;86002;-87
2022/01/13 00:38:39;;;;;;;;;;;0.40;99.90;1.10;101548.00;;;;348327;27;83315;-88
2022/01/13 00:38:52;;;;;;;;;;;0.40;99.90;1.10;101552.00;;;;345527;28;87163;-87
2022/01/13 00:39:04;;;;;;;;;;;0.40;99.90;1.10;101554.00;;;;348463;27;82581;-87
2022/01/13 00:39:16;;;;;;;;;;;0.40;99.90;1.10;101554.00;;;;348302;27;87119;-87
2022/01/13 00:39:28;;;;;;;;;;;0.40;99.90;1.10;101555.00;;;;348461;27;83427;-87
2022/01/13 00:39:40;;;;;;;;;;;0.40;99.90;1.10;101550.00;;;;348374;27;87531;-88
2022/01/13 00:39:51;;;;;;;;;;;0.40;99.90;1.10;101549.00;;;;345663;28;83431;-87
2022/01/13 00:40:05;;;;;;;;;;;0.40;99.90;1.10;101548.00;;;;345553;28;87124;-87
2022/01/13 00:40:17;;;;;;;;;;;0.40;99.90;1.10;101551.00;;;;348553;27;83330;-87
2022/01/13 00:40:28;;;;;;;;;;;0.40;99.90;1.10;101549.00;;;;348416;27;87194;-88
2022/01/13 00:40:40;;;;;;;;;;;0.40;99.90;1.10;101555.00;;;;348442;27;83148;-87
2022/01/13 00:40:52;;;;;;;;;;;0.40;99.90;1.20;101546.00;;;;348059;27;86174;-87
2022/01/13 00:41:04;;;;;;;;;;;0.40;99.90;1.20;101551.00;;;;347100;28;82402;-87
2022/01/13 00:41:16;;;;;;;;;;;0.40;99.90;1.10;101552.00;;;;348316;27;88125;-87
2022/01/13 00:41:29;;;;;;;;;;;0.40;99.90;1.10;101550.00;;;;346552;28;82859;-88
2022/01/13 00:41:40;;;;;;;;;;;0.40;99.90;1.10;101541.00;;;;346797;28;86222;-87
2022/01/13 00:41:52;;;;;;;;;;;0.40;99.90;1.10;101544.00;;;;345550;28;83395;-87
2022/01/13 00:42:04;;;;;;;;;;;0.40;99.90;1.20;101549.00;;;;347101;28;83438;-87
2022/01/13 00:42:16;;;;;;;;;;;0.40;99.90;1.30;101545.00;;;;347189;28;83409;-87
2022/01/13 00:42:28;;;;;;;;;;;0.40;99.90;1.30;101541.00;;;;346945;28;87640;-87
2022/01/13 00:42:40;;;;;;;;;;;0.40;99.90;1.30;101551.00;;;;348413;27;83517;-87
2022/01/13 00:42:51;;;;;;;;;;;0.50;99.90;1.20;101548.00;;;;346994;28;84685;-87
2022/01/13 00:43:03;;;;;;;;;;;0.50;99.90;1.10;101553.00;;;;345477;28;83396;-87
2022/01/13 00:43:15;;;;;;;;;;;0.50;99.90;1.10;101550.00;;;;345531;28;84904;-87
2022/01/13 00:43:27;;;;;;;;;;;0.50;99.90;1.20;101550.00;;;;345795;28;83415;-87
2022/01/13 00:43:41;;;;;;;;;;;0.50;99.90;1.10;101549.00;;;;345592;28;87765;-87
2022/01/13 00:43:54;;;;;;;;;;;0.50;99.90;1.30;101540.00;;;;345641;28;83464;-87
2022/01/13 00:44:06;;;;;;;;;;;0.50;99.90;1.40;101547.00;;;;348339;27;86237;-87
2022/01/13 00:44:21;;;;;;;;;;;0.50;99.90;1.30;101536.00;;;;347038;27;83323;-87
2022/01/13 00:44:37;;;;;;;;;;;0.50;99.90;1.40;101546.00;;;;346722;28;87537;-87
2022/01/13 00:44:49;;;;;;;;;;;0.50;99.90;1.40;101550.00;;;;348416;27;83280;-87
2022/01/13 00:45:03;;;;;;;;;;;0.50;99.90;1.30;101550.00;;;;346508;28;86924;-86
2022/01/13 00:45:16;;;;;;;;;;;0.50;99.90;1.30;101547.00;;;;345738;28;83185;-88
2022/01/13 00:45:28;;;;;;;;;;;0.50;99.90;1.30;101553.00;;;;347959;27;87549;-87
2022/01/13 00:45:40;;;;;;;;;;;0.50;99.90;1.30;101546.00;;;;349935;27;83422;-88
2022/01/13 00:45:51;;;;;;;;;;;0.50;99.90;1.30;101552.00;;;;346590;28;86744;-87
2022/01/13 00:46:04;;;;;;;;;;;0.50;99.90;1.20;101533.00;;;;348411;27;83254;-88
2022/01/13 00:46:27;;;;;;;;;;;0.50;99.90;1.30;101545.00;;;;347048;28;86216;-88
2022/01/13 00:46:44;;;;;;;;;;;0.50;99.90;1.20;101554.00;;;;347151;28;83423;-88
2022/01/13 00:46:59;;;;;;;;;;;0.50;99.90;1.30;101551.00;;;;345722;28;84666;-87
2022/01/13 00:47:11;;;;;;;;;;;0.50;99.90;1.40;101544.00;;;;347075;28;83452;-87
2022/01/13 00:47:23;;;;;;;;;;;0.60;99.90;1.40;101543.00;;;;346574;28;86374;-87
2022/01/13 00:47:36;;;;;;;;;;;0.60;99.90;1.30;101547.00;;;;347461;27;82285;-88
2022/01/13 00:47:48;;;;;;;;;;;0.60;99.90;1.30;101549.00;;;;344264;28;86239;-88
2022/01/13 00:48:00;;;;;;;;;;;0.60;99.90;1.30;101541.00;;;;347057;27;83425;-87
2022/01/13 00:48:11;;;;;;;;;;;0.60;99.90;1.30;101551.00;;;;346943;28;84733;-88
2022/01/13 00:48:23;;;;;;;;;;;0.60;99.90;1.30;101547.00;;;;346992;28;83406;-87
2022/01/13 00:48:35;;;;;;;;;;;0.60;99.90;1.30;101549.00;;;;346996;28;84846;-88
2022/01/13 00:48:48;;;;;;;;;;;0.60;99.90;1.30;101555.00;;;;348363;27;83431;-88
2022/01/13 00:49:00;;;;;;;;;;;0.50;99.90;1.30;101553.00;;;;346883;28;87318;-88
2022/01/13 00:49:13;;;;;;;;;;;0.60;99.90;1.30;101554.00;;;;348469;27;83479;-88
2022/01/13 00:49:25;;;;;;;;;;;0.60;99.90;1.30;101547.00;;;;346964;28;86212;-87
2022/01/13 00:49:37;;;;;;;;;;;0.60;99.90;1.30;101555.00;;;;345800;28;82534;-88
2022/01/13 00:49:49;;;;;;;;;;;0.60;99.90;1.30;101559.00;;;;344191;28;87103;-87
2022/01/13 00:50:00;;;;;;;;;;;0.60;99.90;1.30;101555.00;;;;347095;28;82490;-87
2022/01/13 00:50:12;;;;;;;;;;;0.60;99.90;1.20;101551.00;;;;349756;27;87595;-88
2022/01/13 00:50:24;;;;;;;;;;;0.50;99.90;1.20;101556.00;;;;346614;28;84023;-88
2022/01/13 00:50:36;;;;;;;;;;;0.60;99.90;1.30;101550.00;;;;347384;27;86776;-88
2022/01/13 00:50:48;;;;;;;;;;;0.60;99.90;1.30;101545.00;;;;347079;28;83449;-87
2022/01/13 00:50:59;;;;;;;;;;;0.60;99.90;1.30;101551.00;;;;346859;28;86339;-87
2022/01/13 00:51:11;;;;;;;;;;;0.60;99.90;1.30;101548.00;;;;346878;28;83343;-87
2022/01/13 00:51:24;;;;;;;;;;;0.60;99.90;1.30;101545.00;;;;347174;27;88020;-87
2022/01/13 00:51:36;;;;;;;;;;;0.60;99.90;1.20;101548.00;;;;341448;28;83476;-88
2022/01/13 00:51:47;;;;;;;;;;;0.60;99.90;1.30;101562.00;;;;342669;28;86249;-88
2022/01/13 00:51:59;;;;;;;;;;;0.60;99.90;1.40;101545.00;;;;342732;28;83336;-87
2022/01/13 00:52:11;;;;;;;;;;;0.60;99.90;1.40;101543.00;;;;339887;28;87795;-88
2022/01/13 00:52:26;;;;;;;;;;;0.60;99.90;1.50;101544.00;;;;341387;28;83230;-87
2022/01/13 00:52:38;;;;;;;;;;;0.60;99.90;1.50;101545.00;;;;339823;28;86600;-87
2022/01/13 00:52:49;;;;;;;;;;;0.60;99.90;1.50;101543.00;;;;339995;28;83442;-87
2022/01/13 00:53:01;;;;;;;;;;;0.70;99.90;1.60;101545.00;;;;342716;28;86373;-87
2022/01/13 00:53:13;;;;;;;;;;;0.60;99.90;1.60;101544.00;;;;340020;28;82527;-88
2022/01/13 00:53:25;;;;;;;;;;;0.70;99.90;1.50;101547.00;;;;339089;28;86515;-87
2022/01/13 00:53:37;;;;;;;;;;;0.70;99.90;1.50;101546.00;;;;341292;28;83493;-87
2022/01/13 00:53:49;;;;;;;;;;;0.70;99.90;1.40;101547.00;;;;339917;28;86213;-87
2022/01/13 00:54:05;;;;;;;;;;;0.70;99.90;1.40;101555.00;;;;338674;28;84448;-88
2022/01/13 00:54:17;;;;;;;;;;;0.70;99.90;1.40;101552.00;;;;338646;28;87027;-88
2022/01/13 00:54:28;;;;;;;;;;;0.70;99.90;1.40;101542.00;;;;341148;28;83278;-87
2022/01/13 00:54:40;;;;;;;;;;;0.70;99.90;1.40;101557.00;;;;339917;28;83751;-88
2022/01/13 00:54:52;;;;;;;;;;;0.70;99.90;1.40;101540.00;;;;347014;28;83382;-87
2022/01/13 00:55:09;;;;;;;;;;;0.70;99.90;1.30;101559.00;;;;341231;28;87372;-87
2022/01/13 00:55:22;;;;;;;;;;;0.70;99.90;1.30;101544.00;;;;341330;28;83237;-87
2022/01/13 00:56:15;;;;;;;;;;;0.70;99.90;1.30;101552.00;;;;341309;28;83491;-88
2022/01/13 00:56:27;;;;;;;;;;;0.70;99.90;1.30;101550.00;;;;344856;27;87155;-87
2022/01/13 00:56:39;;;;;;;;;;;0.70;99.90;1.30;101548.00;;;;343232;27;83391;-88
2022/01/13 00:56:51;;;;;;;;;;;0.60;99.90;1.30;101553.00;;;;339804;28;87237;-88
2022/01/13 00:57:03;;;;;;;;;;;0.70;99.90;1.20;101554.00;;;;340101;28;83407;-88
2022/01/13 00:57:15;;;;;;;;;;;0.70;99.90;1.20;101561.00;;;;339821;28;88353;-89
2022/01/13 00:57:28;;;;;;;;;;;0.70;99.90;1.20;101550.00;;;;340085;28;83223;-88
2022/01/13 00:57:39;;;;;;;;;;;0.70;99.90;1.20;101559.00;;;;338655;28;86434;-87
2022/01/13 00:57:51;;;;;;;;;;;0.70;99.90;1.20;101557.00;;;;341437;28;82445;-88
2022/01/13 00:58:04;;;;;;;;;;;0.60;99.90;1.20;101549.00;;;;341209;28;88045;-88
2022/01/13 00:58:16;;;;;;;;;;;0.70;99.90;1.20;101560.00;;;;341387;28;83174;-88
2022/01/13 00:58:29;;;;;;;;;;;0.60;99.90;1.30;101559.00;;;;338612;28;86257;-87
2022/01/13 00:58:41;;;;;;;;;;;0.60;99.90;1.20;101558.00;;;;339786;28;82995;-88
2022/01/13 00:58:53;;;;;;;;;;;0.60;99.90;1.30;101560.00;;;;342681;28;87438;-88
2022/01/13 00:59:10;;;;;;;;;;;0.70;99.90;1.20;101551.00;;;;342804;28;83478;-88
2022/01/13 00:59:21;;;;;;;;;;;0.60;99.90;1.20;101557.00;;;;342231;27;87019;-88
2022/01/13 00:59:33;;;;;;;;;;;0.70;99.90;1.20;101553.00;;;;346935;27;83523;-88
2022/01/13 00:59:45;;;;;;;;;;;0.60;99.90;1.30;101559.00;;;;341359;28;86512;-88
2022/01/13 00:59:58;;;;;;;;;;;0.60;99.90;1.30;101552.00;;;;342555;28;83465;-87
2022/01/13 01:00:11;;;;;;;;;;;0.70;99.90;1.40;101559.00;;;;339904;28;86592;-88
2022/01/13 01:00:22;;;;;;;;;;;0.60;99.90;1.40;101560.00;;;;342697;28;83247;-88
2022/01/13 01:00:34;;;;;;;;;;;0.60;99.90;1.50;101555.00;;;;338582;28;85287;-88
2022/01/13 01:00:46;;;;;;;;;;;0.70;99.90;1.50;101549.00;;;;338609;28;83357;-87
2022/01/13 01:00:58;;;;;;;;;;;0.70;99.90;1.50;101559.00;;;;341326;28;87738;-88
2022/01/13 01:01:10;;;;;;;;;;;0.70;99.90;1.40;101554.00;;;;341396;28;83503;-88
2022/01/13 01:01:23;;;;;;;;;;;0.60;99.90;1.30;101561.00;;;;339666;28;84526;-88
2022/01/13 01:01:35;;;;;;;;;;;0.70;99.90;1.30;101561.00;;;;340172;28;82493;-88
2022/01/13 01:01:49;;;;;;;;;;;0.70;99.90;1.30;101553.00;;;;339985;28;85423;-87
2022/01/13 01:02:01;;;;;;;;;;;0.70;99.90;1.30;101553.00;;;;340103;28;83371;-88
2022/01/13 01:02:14;;;;;;;;;;;0.70;99.90;1.40;101562.00;;;;345605;28;87393;-88
2022/01/13 01:02:26;;;;;;;;;;;0.70;99.90;1.40;101561.00;;;;341095;28;83656;-88
2022/01/13 01:02:38;;;;;;;;;;;0.70;99.90;1.50;101553.00;;;;347480;27;85137;-87
2022/01/13 01:02:50;;;;;;;;;;;0.70;99.90;1.60;101554.00;;;;344142;28;83413;-87
2022/01/13 01:03:02;;;;;;;;;;;0.70;99.90;1.60;101552.00;;;;340473;28;83862;-88
2022/01/13 01:03:14;;;;;;;;;;;0.70;99.90;1.70;101552.00;;;;339201;28;83435;-88
2022/01/13 01:03:26;;;;;;;;;;;0.80;99.90;1.60;101558.00;;;;338955;28;88008;-88
2022/01/13 01:03:38;;;;;;;;;;;0.80;99.90;1.60;101548.00;;;;340499;28;83345;-88
2022/01/13 01:03:50;;;;;;;;;;;0.80;99.90;1.60;101558.00;;;;341703;28;87190;-87
2022/01/13 01:04:03;;;;;;;;;;;0.80;99.90;1.50;101555.00;;;;340371;28;82421;-87
2022/01/13 01:04:14;;;;;;;;;;;0.80;99.90;1.50;101565.00;;;;340303;28;88469;-88
2022/01/13 01:04:26;;;;;;;;;;;0.80;99.90;1.40;101560.00;;;;339194;28;83292;-87
2022/01/13 01:04:38;;;;;;;;;;;0.80;99.90;1.40;101559.00;;;;340322;28;87582;-87
2022/01/13 01:04:50;;;;;;;;;;;0.80;99.90;1.40;101554.00;;;;341840;28;83526;-87
2022/01/13 01:05:02;;;;;;;;;;;0.80;99.90;1.40;101556.00;;;;339076;28;87406;-88
2022/01/13 01:05:13;;;;;;;;;;;0.80;99.90;1.40;101554.00;;;;340456;28;83370;-88
2022/01/13 01:05:25;;;;;;;;;;;0.80;99.90;1.40;101558.00;;;;342436;28;83743;-88
2022/01/13 01:05:37;;;;;;;;;;;0.80;99.90;1.40;101555.00;;;;341007;28;83497;-87
2022/01/13 01:05:49;;;;;;;;;;;0.80;99.90;1.40;101557.00;;;;341639;28;86519;-87
2022/01/13 01:06:03;;;;;;;;;;;0.80;99.90;1.40;101555.00;;;;339161;28;82424;-87
2022/01/13 01:06:15;;;;;;;;;;;0.80;99.90;1.40;101559.00;;;;340522;28;84343;-87
2022/01/13 01:06:26;;;;;;;;;;;0.80;99.90;1.40;101557.00;;;;339039;28;83583;-87
2022/01/13 01:06:38;;;;;;;;;;;0.80;99.90;1.40;101557.00;;;;338985;28;87158;-88
2022/01/13 01:06:50;;;;;;;;;;;0.80;99.90;1.40;101545.00;;;;340501;28;82347;-87
2022/01/13 01:07:02;;;;;;;;;;;0.80;99.90;1.40;101548.00;;;;340449;28;85007;-88
2022/01/13 01:07:14;;;;;;;;;;;0.80;99.90;1.40;101549.00;;;;340119;28;83469;-88
2022/01/13 01:07:27;;;;;;;;;;;0.80;99.90;1.40;101544.00;;;;339128;28;84623;-88
2022/01/13 01:07:38;;;;;;;;;;;0.80;99.90;1.40;101556.00;;;;340475;28;83413;-88
2022/01/13 01:07:50;;;;;;;;;;;0.80;99.90;1.40;101548.00;;;;340480;28;86766;-88
2022/01/13 01:08:03;;;;;;;;;;;0.80;99.90;1.40;101555.00;;;;337877;28;82523;-87
2022/01/13 01:08:15;;;;;;;;;;;0.80;99.90;1.30;101551.00;;;;340390;28;87217;-88
2022/01/13 01:08:28;;;;;;;;;;;0.80;99.90;1.30;101551.00;;;;347401;27;82586;-88
2022/01/13 01:08:40;;;;;;;;;;;0.80;99.90;1.30;101548.00;;;;340209;28;86661;-88
2022/01/13 01:08:52;;;;;;;;;;;0.80;99.90;1.30;101542.00;;;;339608;28;83351;-88
2022/01/13 01:09:04;;;;;;;;;;;0.70;99.90;1.30;101549.00;;;;341840;28;84395;-87
2022/01/13 01:09:22;;;;;;;;;;;0.70;99.90;1.40;101549.00;;;;339072;28;83505;-88
2022/01/13 01:09:47;;;;;;;;;;;0.70;99.90;1.50;101550.00;;;;339200;28;84942;-88
2022/01/13 01:10:02;;;;;;;;;;;0.80;99.90;1.50;101554.00;;;;340518;28;83290;-88
2022/01/13 01:10:14;;;;;;;;;;;0.80;99.90;1.50;101553.00;;;;338645;28;86297;-88
2022/01/13 01:10:26;;;;;;;;;;;0.80;99.90;1.40;101555.00;;;;337921;28;83406;-87
2022/01/13 01:10:38;;;;;;;;;;;0.80;99.90;1.50;101552.00;;;;340310;28;87154;-87
2022/01/13 01:10:52;;;;;;;;;;;0.80;99.90;1.50;101549.00;;;;336544;28;83466;-88
2022/01/13 01:11:04;;;;;;;;;;;0.80;99.90;1.50;101551.00;;;;338977;28;87960;-88
2022/01/13 01:11:17;;;;;;;;;;;0.80;99.90;1.50;101548.00;;;;339102;28;83349;-88
2022/01/13 01:11:28;;;;;;;;;;;0.80;99.90;1.40;101554.00;;;;346183;28;87570;-88
2022/01/13 01:11:41;;;;;;;;;;;0.80;99.90;1.50;101543.00;;;;341360;28;83404;-88
2022/01/13 01:11:55;;;;;;;;;;;0.80;99.90;1.50;101551.00;;;;338356;28;87474;-88
2022/01/13 01:12:08;;;;;;;;;;;0.80;99.90;1.50;101550.00;;;;346214;28;83354;-87